createdAt,value
2019-04-25T00:01:46.353Z,13.98
2019-04-25T00:04:21.566Z,13.98
2019-04-25T00:06:53.984Z,13.93
2019-04-25T00:09:28.648Z,13.89
2019-04-25T00:12:02.270Z,13.86
2019-04-25T00:14:34.502Z,13.86
2019-04-25T00:17:07.502Z,13.86
2019-04-25T00:19:40.735Z,13.85
2019-04-25T00:22:51.515Z,13.88
2019-04-25T00:25:44.473Z,13.89
2019-04-25T00:28:15.198Z,13.95
2019-04-25T00:30:47.968Z,13.94
2019-04-25T00:33:21.577Z,13.96
2019-04-25T00:35:53.652Z,13.97
2019-04-25T00:38:25.656Z,13.99
2019-04-25T00:40:57.628Z,13.96
2019-04-25T00:43:31.359Z,13.96
2019-04-25T00:46:04.013Z,13.91
2019-04-25T00:48:35.963Z,13.87
2019-04-25T00:51:07.947Z,13.86
2019-04-25T00:53:40.033Z,13.85
2019-04-25T00:56:12.102Z,13.80
2019-04-25T00:58:51.317Z,13.86
2019-04-25T01:01:33.101Z,13.89
2019-04-25T01:04:05.126Z,13.89
2019-04-25T01:06:37.073Z,13.95
2019-04-25T01:09:13.806Z,13.97
2019-04-25T01:11:45.962Z,14.01
2019-04-25T01:14:18.078Z,14.01
2019-04-25T01:16:51.248Z,14.03
2019-04-25T01:19:24.454Z,14.05
2019-04-25T01:21:56.542Z,14.00
2019-04-25T01:24:28.891Z,14.00
2019-04-25T01:27:01.340Z,14.06
2019-04-25T01:29:33.528Z,14.06
2019-04-25T01:32:08.072Z,14.07
2019-04-25T01:35:00.479Z,14.08
2019-04-25T01:37:57.575Z,14.09
2019-04-25T01:40:53.083Z,14.11
2019-04-25T01:43:37.486Z,14.12
2019-04-25T01:46:10.873Z,14.15
2019-04-25T01:48:43.394Z,14.19
2019-04-25T01:51:15.548Z,14.24
2019-04-25T01:53:49.003Z,14.28
2019-04-25T01:56:21.277Z,14.32
2019-04-25T01:58:53.890Z,14.37
2019-04-25T02:01:26.872Z,14.37
2019-04-25T02:03:59.056Z,14.35
2019-04-25T02:06:31.374Z,14.38
2019-04-25T02:09:05.291Z,14.37
2019-04-25T02:11:58.914Z,14.35
2019-04-25T02:14:31.574Z,14.42
2019-04-25T02:17:04.522Z,14.38
2019-04-25T02:19:36.724Z,14.36
2019-04-25T02:22:09.326Z,14.34
2019-04-25T02:24:41.292Z,14.28
2019-04-25T02:27:13.635Z,14.24
2019-04-25T02:29:45.778Z,14.24
2019-04-25T02:32:17.955Z,14.17
2019-04-25T02:34:50.269Z,14.17
2019-04-25T02:37:22.279Z,14.10
2019-04-25T02:39:57.210Z,14.08
2019-04-25T02:42:28.378Z,14.05
2019-04-25T02:45:10.110Z,14.03
2019-04-25T02:48:05.683Z,14.01
2019-04-25T02:50:46.173Z,13.99
2019-04-25T02:53:37.299Z,13.97
2019-04-25T02:56:26.336Z,13.90
2019-04-25T02:58:44.271Z,13.90
2019-04-25T03:01:22.771Z,13.85
2019-04-25T03:03:54.359Z,13.82
2019-04-25T03:06:25.807Z,13.81
2019-04-25T03:09:00.222Z,13.79
2019-04-25T03:11:34.557Z,13.78
2019-04-25T03:14:09.500Z,13.81
2019-04-25T03:16:40.653Z,13.80
2019-04-25T03:19:46.542Z,13.81
2019-04-25T03:22:21.589Z,13.84
2019-04-25T03:24:55.098Z,13.78
2019-04-25T03:27:27.144Z,13.80
2019-04-25T03:29:59.738Z,13.80
2019-04-25T03:32:31.801Z,13.79
2019-04-25T03:35:05.549Z,13.77
2019-04-25T03:37:37.465Z,13.74
2019-04-25T03:40:11.716Z,13.73
2019-04-25T03:42:44.376Z,13.77
2019-04-25T03:45:16.329Z,13.80
2019-04-25T03:47:48.376Z,13.81
2019-04-25T03:50:20.656Z,13.86
2019-04-25T03:52:54.051Z,13.95
2019-04-25T03:55:26.309Z,14.03
2019-04-25T03:57:58.268Z,14.14
2019-04-25T04:00:30.519Z,14.28
2019-04-25T04:03:05.720Z,14.39
2019-04-25T04:05:36.448Z,14.55
2019-04-25T04:08:08.629Z,14.67
2019-04-25T04:10:40.759Z,14.88
2019-04-25T04:13:14.603Z,15.14
2019-04-25T04:15:46.536Z,15.32
2019-04-25T04:18:34.954Z,15.50
2019-04-25T04:21:33.999Z,15.83
2019-04-25T04:24:11.868Z,16.03
2019-04-25T04:26:45.531Z,16.26
2019-04-25T04:29:17.458Z,16.54
2019-04-25T04:31:49.484Z,16.79
2019-04-25T04:34:21.478Z,16.97
2019-04-25T04:36:53.770Z,17.10
2019-04-25T04:39:27.920Z,17.29
2019-04-25T04:42:00.436Z,17.55
2019-04-25T04:44:34.177Z,18.10
2019-04-25T04:47:06.134Z,18.60
2019-04-25T04:49:38.153Z,19.23
2019-04-25T04:52:11.412Z,19.82
2019-04-25T04:54:43.983Z,20.49
2019-04-25T04:57:26.653Z,20.88
2019-04-25T04:59:49.964Z,21.57
2019-04-25T05:02:30.515Z,21.88
2019-04-25T05:05:24.826Z,22.06
2019-04-25T05:08:00.343Z,22.71
2019-04-25T05:10:33.298Z,23.42
2019-04-25T05:13:05.489Z,23.93
2019-04-25T05:15:37.455Z,24.29
2019-04-25T05:18:09.490Z,24.82
2019-04-25T05:20:41.583Z,26.03
2019-04-25T05:23:15.734Z,27.33
2019-04-25T05:25:47.243Z,28.04
2019-04-25T05:28:19.570Z,29.09
2019-04-25T05:31:07.761Z,30.69
2019-04-25T05:33:40.576Z,31.76
2019-04-25T05:36:14.983Z,31.56
2019-04-25T05:38:46.346Z,30.39
2019-04-25T05:41:44.234Z,29.57
2019-04-25T05:44:16.939Z,29.47
2019-04-25T05:46:49.026Z,29.70
2019-04-25T05:49:21.378Z,30.93
2019-04-25T05:51:53.887Z,32.21
2019-04-25T05:54:26.880Z,33.30
2019-04-25T05:56:59.105Z,34.09
2019-04-25T05:59:31.105Z,35.13
2019-04-25T06:02:03.903Z,35.63
2019-04-25T06:04:37.506Z,37.36
2019-04-25T06:07:09.950Z,38.48
2019-04-25T06:10:00.859Z,40.70
2019-04-25T06:12:53.530Z,43.21
2019-04-25T06:15:28.718Z,44.79
2019-04-25T06:18:32.431Z,45.52
2019-04-25T06:21:06.396Z,46.88
2019-04-25T06:23:55.929Z,47.79
2019-04-25T06:26:36.100Z,47.22
2019-04-25T06:29:03.171Z,45.69
2019-04-25T06:31:35.392Z,44.26
2019-04-25T06:34:07.520Z,43.64
2019-04-25T06:36:39.916Z,43.68
2019-04-25T06:39:11.909Z,44.88
2019-04-25T06:41:44.233Z,45.83
2019-04-25T06:44:35.424Z,46.14
2019-04-25T06:47:32.290Z,47.60
2019-04-25T06:50:04.379Z,48.76
2019-04-25T06:52:36.364Z,50.25
2019-04-25T06:55:10.930Z,51.14
2019-04-25T06:57:44.155Z,51.45
2019-04-25T07:00:17.535Z,51.27
2019-04-25T07:02:49.539Z,50.40
2019-04-25T07:05:30.576Z,50.24
2019-04-25T07:07:56.834Z,49.61
2019-04-25T07:10:29.458Z,48.31
2019-04-25T07:13:01.650Z,47.28
2019-04-25T07:15:34.198Z,46.82
2019-04-25T07:18:07.459Z,49.16
2019-04-25T07:20:39.459Z,51.23
2019-04-25T07:23:11.440Z,52.99
2019-04-25T07:25:48.607Z,53.74
2019-04-25T07:28:48.768Z,54.55
2019-04-25T07:31:33.463Z,56.94
2019-04-25T07:34:10.743Z,57.95
2019-04-25T07:36:42.704Z,57.97
2019-04-25T07:39:15.086Z,58.81
2019-04-25T07:41:47.144Z,60.19
2019-04-25T07:44:22.029Z,58.36
2019-04-25T07:46:54.200Z,58.88
2019-04-25T07:49:26.856Z,60.30
2019-04-25T07:51:58.949Z,60.21
2019-04-25T07:54:30.995Z,61.39
2019-04-25T07:57:03.642Z,59.90
2019-04-25T07:59:36.383Z,58.81
2019-04-25T08:02:08.610Z,59.06
2019-04-25T08:04:40.936Z,59.45
2019-04-25T08:07:14.238Z,60.29
2019-04-25T08:09:46.476Z,60.78
2019-04-25T08:12:18.419Z,62.26
2019-04-25T08:14:55.487Z,62.31
2019-04-25T08:17:45.543Z,62.87
2019-04-25T08:20:20.418Z,64.59
2019-04-25T08:22:57.147Z,64.86
2019-04-25T08:25:26.175Z,65.94
2019-04-25T08:27:58.098Z,63.36
2019-04-25T08:30:31.401Z,62.24
2019-04-25T08:33:03.974Z,61.10
2019-04-25T08:35:36.537Z,62.67
2019-04-25T08:38:08.592Z,64.15
2019-04-25T08:40:42.479Z,64.25
2019-04-25T08:43:15.365Z,61.29
2019-04-25T08:45:47.564Z,58.62
2019-04-25T08:48:20.288Z,56.26
2019-04-25T08:51:03.667Z,57.15
2019-04-25T08:53:45.144Z,59.96
2019-04-25T08:56:22.273Z,62.03
2019-04-25T08:59:04.120Z,65.03
2019-04-25T09:01:47.646Z,66.36
2019-04-25T09:04:42.987Z,68.54
2019-04-25T09:07:15.774Z,69.73
2019-04-25T09:09:47.840Z,71.79
2019-04-25T09:12:20.459Z,71.74
2019-04-25T09:14:54.100Z,72.84
2019-04-25T09:17:26.241Z,73.32
2019-04-25T09:19:58.164Z,74.37
2019-04-25T09:22:30.156Z,73.73
2019-04-25T09:25:03.748Z,70.88
2019-04-25T09:27:39.238Z,70.55
2019-04-25T09:30:11.023Z,64.09
2019-04-25T09:32:44.529Z,67.44
2019-04-25T09:35:16.739Z,68.37
2019-04-25T09:37:48.702Z,67.63
2019-04-25T09:40:23.991Z,70.03
2019-04-25T09:42:56.332Z,71.21
2019-04-25T09:45:37.670Z,72.68
2019-04-25T09:48:30.801Z,71.07
2019-04-25T09:51:25.713Z,71.07
2019-04-25T09:54:03.888Z,72.68
2019-04-25T09:56:45.141Z,73.55
2019-04-25T09:59:27.143Z,72.86
2019-04-25T10:01:54.287Z,69.76
2019-04-25T10:04:26.258Z,70.93
2019-04-25T10:06:58.282Z,71.94
2019-04-25T10:09:33.666Z,72.71
2019-04-25T10:12:06.150Z,73.98
2019-04-25T10:15:24.030Z,74.30
2019-04-25T10:17:56.100Z,74.14
2019-04-25T10:20:28.280Z,74.20
2019-04-25T10:23:00.210Z,68.90
2019-04-25T10:25:33.424Z,65.75
2019-04-25T10:28:07.086Z,61.99
2019-04-25T10:30:39.541Z,62.29
2019-04-25T10:33:11.634Z,64.96
2019-04-25T10:35:52.088Z,66.50
2019-04-25T10:38:17.485Z,68.07
2019-04-25T10:40:50.331Z,70.56
2019-04-25T10:43:23.947Z,71.49
2019-04-25T10:45:56.522Z,71.74
2019-04-25T10:48:28.588Z,72.20
2019-04-25T10:51:00.903Z,72.88
2019-04-25T10:53:33.878Z,73.62
2019-04-25T10:56:06.158Z,74.44
2019-04-25T10:58:38.217Z,73.58
2019-04-25T11:01:10.646Z,72.65
2019-04-25T11:03:55.756Z,73.16
2019-04-25T11:06:29.461Z,71.08
2019-04-25T11:09:03.383Z,67.73
2019-04-25T11:11:37.368Z,68.05
2019-04-25T11:14:09.493Z,68.78
2019-04-25T11:16:42.841Z,68.50
2019-04-25T11:19:15.409Z,66.30
2019-04-25T11:21:47.728Z,65.48
2019-04-25T11:24:19.830Z,62.03
2019-04-25T11:26:51.822Z,57.10
2019-04-25T11:29:24.149Z,54.03
2019-04-25T11:31:56.475Z,52.74
2019-04-25T11:34:28.446Z,51.94
2019-04-25T11:37:01.036Z,49.54
2019-04-25T11:39:41.813Z,47.06
2019-04-25T11:42:16.066Z,44.49
2019-04-25T11:44:48.089Z,42.36
2019-04-25T11:47:20.794Z,40.66
2019-04-25T11:49:54.604Z,39.50
2019-04-25T11:52:29.985Z,38.10
2019-04-25T11:55:00.423Z,36.77
2019-04-25T11:57:32.438Z,35.39
2019-04-25T12:00:04.892Z,34.28
2019-04-25T12:02:36.874Z,33.31
2019-04-25T12:05:08.910Z,32.51
2019-04-25T12:07:40.924Z,32.12
2019-04-25T12:10:14.452Z,31.72
2019-04-25T12:12:47.394Z,31.44
2019-04-25T12:15:19.475Z,31.03
2019-04-25T12:17:51.619Z,30.63
2019-04-25T12:20:24.103Z,30.19
2019-04-25T12:23:05.935Z,29.89
2019-04-25T12:25:29.843Z,29.61
2019-04-25T12:28:02.819Z,29.44
2019-04-25T12:30:40.080Z,29.17
2019-04-25T12:33:20.722Z,28.80
2019-04-25T12:35:43.702Z,28.66
2019-04-25T12:38:15.911Z,28.57
2019-04-25T12:40:48.206Z,28.47
2019-04-25T12:43:23.967Z,28.50
2019-04-25T12:46:05.695Z,28.51
2019-04-25T12:48:37.708Z,28.55
2019-04-25T12:51:09.777Z,28.53
2019-04-25T12:53:41.769Z,28.56
2019-04-25T12:56:13.729Z,28.63
2019-04-25T12:58:45.683Z,28.44
2019-04-25T13:01:17.705Z,28.23
2019-04-25T13:03:50.858Z,28.07
2019-04-25T13:06:23.872Z,28.02
2019-04-25T13:08:55.900Z,28.06
2019-04-25T13:11:27.952Z,28.16
2019-04-25T13:14:00.294Z,28.03
2019-04-25T13:16:32.269Z,28.13
2019-04-25T13:19:16.722Z,28.16
2019-04-25T13:21:38.399Z,28.09
2019-04-25T13:24:10.550Z,28.02
2019-04-25T13:26:56.883Z,27.85
2019-04-25T13:29:53.241Z,27.60
2019-04-25T13:32:44.118Z,27.48
2019-04-25T13:35:21.198Z,27.55
2019-04-25T13:37:53.966Z,27.73
2019-04-25T13:40:26.068Z,27.90
2019-04-25T13:42:58.066Z,28.14
2019-04-25T13:45:30.355Z,28.22
2019-04-25T13:48:03.357Z,28.29
2019-04-25T13:50:36.141Z,28.18
2019-04-25T13:53:08.126Z,28.09
2019-04-25T13:55:40.506Z,27.99
2019-04-25T13:58:14.409Z,27.81
2019-04-25T14:00:47.422Z,27.69
2019-04-25T14:03:19.566Z,27.64
2019-04-25T14:05:51.630Z,27.59
2019-04-25T14:08:24.714Z,27.53
2019-04-25T14:10:57.359Z,27.41
2019-04-25T14:13:30.626Z,27.49
2019-04-25T14:16:30.759Z,27.51
2019-04-25T14:19:21.880Z,27.50
2019-04-25T14:21:56.947Z,27.40
2019-04-25T14:24:30.765Z,27.41
2019-04-25T14:27:03.690Z,27.33
2019-04-25T14:29:36.044Z,27.37
2019-04-25T14:32:09.821Z,27.34
2019-04-25T14:34:43.256Z,27.45
2019-04-25T14:37:15.385Z,27.49
2019-04-25T14:39:47.394Z,27.51
2019-04-25T14:42:19.404Z,27.49
2019-04-25T14:44:51.383Z,27.64
2019-04-25T14:47:24.392Z,27.62
2019-04-25T14:49:56.667Z,27.52
2019-04-25T14:52:28.682Z,27.40
2019-04-25T14:55:18.695Z,27.25
2019-04-25T14:57:51.129Z,27.15
2019-04-25T15:00:30.411Z,27.06
2019-04-25T15:03:02.464Z,27.06
2019-04-25T15:05:34.955Z,27.10
2019-04-25T15:08:07.526Z,27.13
2019-04-25T15:10:40.018Z,27.15
2019-04-25T15:13:12.245Z,26.92
2019-04-25T15:15:44.284Z,26.89
2019-04-25T15:18:16.362Z,26.80
2019-04-25T15:20:48.342Z,26.77
2019-04-25T15:23:21.046Z,26.73
2019-04-25T15:25:53.113Z,26.68
2019-04-25T15:28:25.126Z,26.65
2019-04-25T15:30:57.212Z,26.72
2019-04-25T15:33:30.252Z,26.76
2019-04-25T15:36:17.347Z,26.75
2019-04-25T15:38:58.196Z,26.80
2019-04-25T15:41:48.512Z,26.86
2019-04-25T15:44:39.653Z,26.75
2019-04-25T15:47:15.111Z,26.66
2019-04-25T15:49:47.182Z,26.60
2019-04-25T15:52:19.159Z,26.64
2019-04-25T15:54:51.268Z,26.64
2019-04-25T15:57:23.271Z,26.60
2019-04-25T15:59:55.370Z,26.55
2019-04-25T16:02:28.785Z,26.51
2019-04-25T16:05:01.208Z,26.46
2019-04-25T16:07:33.781Z,26.53
2019-04-25T16:10:06.819Z,26.40
2019-04-25T16:12:38.856Z,26.33
2019-04-25T16:15:11.102Z,26.34
2019-04-25T16:17:44.576Z,26.22
2019-04-25T16:20:16.736Z,26.27
2019-04-25T16:22:48.972Z,26.13
2019-04-25T16:25:22.944Z,26.05
2019-04-25T16:27:55.036Z,26.01
2019-04-25T16:30:32.449Z,26.05
2019-04-25T16:33:04.682Z,25.96
2019-04-25T16:35:37.818Z,25.93
2019-04-25T16:38:10.178Z,25.85
2019-04-25T16:40:42.150Z,25.69
2019-04-25T16:43:17.057Z,25.59
2019-04-25T16:45:49.133Z,25.49
2019-04-25T16:48:21.386Z,25.35
2019-04-25T16:50:53.386Z,25.28
2019-04-25T16:53:25.408Z,25.16
2019-04-25T16:55:57.422Z,25.14
2019-04-25T16:58:29.744Z,25.03
2019-04-25T17:01:09.622Z,25.02
2019-04-25T17:03:42.329Z,24.99
2019-04-25T17:06:14.403Z,25.00
2019-04-25T17:08:47.522Z,24.94
2019-04-25T17:11:19.838Z,24.83
2019-04-25T17:14:01.560Z,24.69
2019-04-25T17:16:42.360Z,24.65
2019-04-25T17:19:18.702Z,24.60
2019-04-25T17:21:50.778Z,24.51
2019-04-25T17:24:22.706Z,24.40
2019-04-25T17:26:54.728Z,24.33
2019-04-25T17:29:26.856Z,24.24
2019-04-25T17:32:10.923Z,24.19
2019-04-25T17:34:59.504Z,24.11
2019-04-25T17:37:41.056Z,24.04
2019-04-25T17:40:17.020Z,23.88
2019-04-25T17:42:49.063Z,23.76
2019-04-25T17:45:25.915Z,23.66
2019-04-25T17:47:57.877Z,23.58
2019-04-25T17:50:30.096Z,23.54
2019-04-25T17:53:02.174Z,23.44
2019-04-25T17:55:35.359Z,23.38
2019-04-25T17:58:07.370Z,23.37
2019-04-25T18:00:42.049Z,23.23
2019-04-25T18:03:14.309Z,23.12
2019-04-25T18:05:46.403Z,23.03
2019-04-25T18:08:18.583Z,22.92
2019-04-25T18:10:51.060Z,22.87
2019-04-25T18:13:23.053Z,22.74
2019-04-25T18:16:04.054Z,22.63
2019-04-25T18:18:58.852Z,22.56
2019-04-25T18:21:30.972Z,22.47
2019-04-25T18:24:27.958Z,22.39
2019-04-25T18:27:04.923Z,22.36
2019-04-25T18:29:39.506Z,22.35
2019-04-25T18:32:11.584Z,22.35
2019-04-25T18:34:58.722Z,22.26
2019-04-25T18:38:07.568Z,22.26
2019-04-25T18:40:47.334Z,22.16
2019-04-25T18:43:23.442Z,22.11
2019-04-25T18:46:00.011Z,22.09
2019-04-25T18:48:32.068Z,22.05
2019-04-25T18:51:04.061Z,21.96
2019-04-25T18:54:10.008Z,21.92
2019-04-25T18:56:57.462Z,21.85
2019-04-25T18:59:48.349Z,21.74
2019-04-25T19:02:46.199Z,21.68
2019-04-25T19:05:33.590Z,21.64
2019-04-25T19:08:06.366Z,21.55
2019-04-25T19:10:39.497Z,21.53
2019-04-25T19:13:12.719Z,21.48
2019-04-25T19:15:45.220Z,21.41
2019-04-25T19:18:17.318Z,21.36
2019-04-25T19:20:49.408Z,21.40
2019-04-25T19:23:21.418Z,21.41
2019-04-25T19:25:53.406Z,21.41
2019-04-25T19:28:25.505Z,21.33
2019-04-25T19:30:57.652Z,21.37
2019-04-25T19:33:35.815Z,21.41
2019-04-25T19:36:03.350Z,21.43
2019-04-25T19:38:35.291Z,21.43
2019-04-25T19:41:15.839Z,21.35
2019-04-25T19:44:01.386Z,21.40
2019-04-25T19:46:41.465Z,21.34
2019-04-25T19:49:13.874Z,21.30
2019-04-25T19:51:45.849Z,21.17
2019-04-25T19:54:17.979Z,21.03
2019-04-25T19:56:50.350Z,20.94
2019-04-25T19:59:23.642Z,20.92
2019-04-25T20:01:57.558Z,20.83
2019-04-25T20:04:53.196Z,20.77
2019-04-25T20:07:31.107Z,20.85
2019-04-25T20:10:11.221Z,20.85
2019-04-25T20:12:50.510Z,20.77
2019-04-25T20:15:21.788Z,20.80
2019-04-25T20:17:54.198Z,20.73
2019-04-25T20:20:26.380Z,20.66
2019-04-25T20:22:58.433Z,20.57
2019-04-25T20:25:30.833Z,20.50
2019-04-25T20:28:02.826Z,20.48
2019-04-25T20:30:34.846Z,20.38
2019-04-25T20:33:07.820Z,20.30
2019-04-25T20:35:40.272Z,20.29
2019-04-25T20:38:12.748Z,20.34
2019-04-25T20:40:45.352Z,20.25
2019-04-25T20:43:18.462Z,20.22
2019-04-25T20:45:50.480Z,20.17
2019-04-25T20:48:22.560Z,20.08
2019-04-25T20:50:54.599Z,20.08
2019-04-25T20:53:26.688Z,20.05
2019-04-25T20:55:58.652Z,20.01
2019-04-25T20:58:31.083Z,19.98
2019-04-25T21:01:04.061Z,19.89
2019-04-25T21:03:36.552Z,19.80
2019-04-25T21:06:15.209Z,19.83
2019-04-25T21:08:47.185Z,19.80
2019-04-25T21:11:19.159Z,19.82
2019-04-25T21:14:08.476Z,19.88
2019-04-25T21:17:02.949Z,19.85
2019-04-25T21:19:38.064Z,19.85
2019-04-25T21:22:10.872Z,19.83
2019-04-25T21:24:42.849Z,19.81
2019-04-25T21:27:14.918Z,19.75
2019-04-25T21:29:46.958Z,19.85
2019-04-25T21:32:20.875Z,19.82
2019-04-25T21:34:53.111Z,19.85
2019-04-25T21:37:26.181Z,19.88
2019-04-25T21:40:08.274Z,19.84
2019-04-25T21:42:51.579Z,19.84
2019-04-25T21:45:24.801Z,19.84
2019-04-25T21:47:57.087Z,19.85
2019-04-25T21:50:29.394Z,19.89
2019-04-25T21:53:01.773Z,19.89
2019-04-25T21:55:34.192Z,19.90
2019-04-25T21:58:06.583Z,19.93
2019-04-25T22:01:14.408Z,19.92
2019-04-25T22:03:46.885Z,19.97
2019-04-25T22:06:19.176Z,20.00
2019-04-25T22:08:51.276Z,19.99
2019-04-25T22:11:23.501Z,19.90
2019-04-25T22:13:56.604Z,19.93
2019-04-25T22:16:30.295Z,19.90
2019-04-25T22:19:02.556Z,19.85
2019-04-25T22:21:38.199Z,19.83
2019-04-25T22:24:13.780Z,19.72
2019-04-25T22:26:42.333Z,19.60
2019-04-25T22:29:14.724Z,19.55
2019-04-25T22:32:03.174Z,19.48
2019-04-25T22:34:52.098Z,19.48
2019-04-25T22:37:17.493Z,19.42
2019-04-25T22:39:50.212Z,19.33
2019-04-25T22:42:22.412Z,19.25
2019-04-25T22:44:54.635Z,19.22
2019-04-25T22:47:26.619Z,19.16
2019-04-25T22:49:58.586Z,19.09
2019-04-25T22:52:31.083Z,19.07
2019-04-25T22:55:04.253Z,19.10
2019-04-25T22:57:36.610Z,19.01
2019-04-25T23:00:12.390Z,18.95
2019-04-25T23:02:57.034Z,18.90
2019-04-25T23:05:51.468Z,18.80
2019-04-25T23:08:23.728Z,18.80
2019-04-25T23:10:55.716Z,18.83
2019-04-25T23:13:27.774Z,18.84
2019-04-25T23:16:00.302Z,18.77
2019-04-25T23:18:33.322Z,18.73
2019-04-25T23:21:06.689Z,18.80
2019-04-25T23:23:38.830Z,18.87
2019-04-25T23:26:33.072Z,18.88
2019-04-25T23:29:06.123Z,18.87
2019-04-25T23:31:38.910Z,18.83
2019-04-25T23:34:11.258Z,18.70
2019-04-25T23:36:43.294Z,18.59
2019-04-25T23:39:15.456Z,18.46
2019-04-25T23:41:47.519Z,18.33
2019-04-25T23:44:19.499Z,18.24
2019-04-25T23:46:51.821Z,18.18
2019-04-25T23:49:23.851Z,18.10
2019-04-25T23:51:56.122Z,18.11
2019-04-25T23:54:28.129Z,18.04
2019-04-25T23:57:00.839Z,17.94
2019-04-25T23:59:32.849Z,17.91
